Aviation Digital Data Service (ADDS)

Output produced by METARs form (2355 UTC 25 June 2019)
found at http://aviationweather.gov/metar/data/
 
KASD 252329Z 2600/2624 VRB03KT P6SM FEW024 
     FM261500 10005KT P6SM SCT250 
     FM261900 14005KT P6SM SCT110